Time;durP1;ratioP1;P1;durP2;ratioP2;P2;SDS_P1;SDS_P2;PMS_P1;PMS_P2;Temp;Humidity;BMP_temperature;BMP_pressure;BME280_temperature;BME280_humidity;BME280_pressure;Samples;Min_cycle;Max_cycle;Signal;HPM_P1;HPM_P2
2021/06/27 00:00:10;;;;;;;;;;;26.60;92.30;;;;;;5103255;28;19936;-47
2021/06/27 00:02:36;;;;;;;;;;;26.70;92.30;;;;;;5103980;28;19912;-47
2021/06/27 00:05:02;;;;;;;;;;;26.60;92.30;;;;;;5104546;28;19948;-44
2021/06/27 00:07:29;;;;;;;;;;;26.60;92.30;;;;;;5104995;28;19978;-45
2021/06/27 00:09:55;;;;;;;;;;;26.60;92.30;;;;;;5104807;28;19904;-42
2021/06/27 00:12:21;;;;;;;;;;;26.70;92.40;;;;;;5104727;28;19912;-48
2021/06/27 00:14:47;;;;;;;;;;;26.70;92.40;;;;;;5104665;28;20105;-52
2021/06/27 00:17:13;;;;;;;;;;;26.60;92.60;;;;;;5104749;28;19912;-46
2021/06/27 00:19:40;;;;;;;;;;;26.60;92.30;;;;;;5104471;28;20179;-44
2021/06/27 00:22:07;;;;;;;;;;;26.60;92.40;;;;;;5104544;28;19981;-46
2021/06/27 00:24:34;;;;;;;;;;;26.60;92.50;;;;;;5104663;28;19908;-50
2021/06/27 00:27:00;;;;;;;;;;;26.60;92.40;;;;;;5104628;28;19919;-53
2021/06/27 00:29:26;;;;;;;;;;;26.60;92.40;;;;;;5104362;28;19905;-55
2021/06/27 00:31:52;;;;;;;;;;;26.60;92.50;;;;;;5104511;28;19912;-51
2021/06/27 00:34:18;;;;;;;;;;;26.60;92.40;;;;;;5104452;28;19904;-46
2021/06/27 00:36:46;;;;;;;;;;;26.60;92.40;;;;;;5104325;28;20105;-51
2021/06/27 00:39:12;;;;;;;;;;;26.60;92.50;;;;;;5104363;28;19924;-53
2021/06/27 00:41:41;;;;;;;;;;;26.50;92.40;;;;;;5103425;28;20326;-45
2021/06/27 00:44:10;;;;;;;;;;;26.50;92.50;;;;;;5103417;28;19916;-49
2021/06/27 00:46:36;;;;;;;;;;;26.60;92.50;;;;;;5104660;28;19904;-49
2021/06/27 00:49:02;;;;;;;;;;;26.50;92.60;;;;;;5104293;28;19977;-46
2021/06/27 00:51:29;;;;;;;;;;;26.50;92.60;;;;;;5104150;28;19904;-51
2021/06/27 00:53:55;;;;;;;;;;;26.50;92.60;;;;;;5104372;28;19912;-53
2021/06/27 00:56:21;;;;;;;;;;;26.50;92.70;;;;;;5104307;28;19904;-46
2021/06/27 00:58:48;;;;;;;;;;;26.50;92.70;;;;;;5104638;28;20188;-47
2021/06/27 01:01:15;;;;;;;;;;;26.50;92.60;;;;;;5103142;28;19990;-52
2021/06/27 01:03:41;;;;;;;;;;;26.50;92.60;;;;;;5104540;28;19954;-54
2021/06/27 01:06:07;;;;;;;;;;;26.50;92.50;;;;;;5103868;28;20108;-50
2021/06/27 01:08:33;;;;;;;;;;;26.50;92.60;;;;;;5108149;28;19915;-49
2021/06/27 01:11:00;;;;;;;;;;;26.40;92.60;;;;;;5108113;28;19908;-52
2021/06/27 01:13:27;;;;;;;;;;;26.40;92.70;;;;;;5108206;28;19915;-41
2021/06/27 01:15:54;;;;;;;;;;;26.40;92.70;;;;;;5108009;28;20279;-45
2021/06/27 01:18:20;;;;;;;;;;;26.40;92.80;;;;;;5108333;28;20237;-41
2021/06/27 01:20:48;;;;;;;;;;;26.40;92.80;;;;;;5107714;28;19920;-44
2021/06/27 01:23:15;;;;;;;;;;;26.40;92.90;;;;;;5107728;28;20235;-50
2021/06/27 01:25:43;;;;;;;;;;;26.30;92.80;;;;;;5107814;28;19908;-47
2021/06/27 01:28:10;;;;;;;;;;;26.30;92.80;;;;;;5108061;28;19949;-47
2021/06/27 01:30:37;;;;;;;;;;;26.30;92.80;;;;;;5106479;28;19908;-49
2021/06/27 01:33:05;;;;;;;;;;;26.30;92.80;;;;;;5108025;28;19909;-45
2021/06/27 01:35:32;;;;;;;;;;;26.30;92.90;;;;;;5107558;28;19908;-48
2021/06/27 01:37:59;;;;;;;;;;;26.30;92.80;;;;;;5107865;28;19920;-41
2021/06/27 01:40:27;;;;;;;;;;;26.30;92.80;;;;;;5107686;28;19912;-50
2021/06/27 01:43:04;;;;;;;;;;;26.30;92.80;;;;;;5107729;28;20116;-49
2021/06/27 01:45:30;;;;;;;;;;;26.30;92.90;;;;;;5107452;28;20012;-47
2021/06/27 01:47:58;;;;;;;;;;;26.30;92.90;;;;;;5107686;28;19915;-47
2021/06/27 01:50:25;;;;;;;;;;;26.30;92.90;;;;;;5107498;28;19908;-51
2021/06/27 01:52:52;;;;;;;;;;;26.30;92.90;;;;;;5107642;28;19951;-48
2021/06/27 01:55:19;;;;;;;;;;;26.30;92.90;;;;;;5107326;28;19914;-49
2021/06/27 01:57:45;;;;;;;;;;;26.30;92.90;;;;;;5107366;28;19916;-45
2021/06/27 02:00:12;;;;;;;;;;;26.30;93.00;;;;;;5107356;28;20139;-43
2021/06/27 02:02:38;;;;;;;;;;;26.30;93.00;;;;;;5107320;28;19915;-43
2021/06/27 02:05:06;;;;;;;;;;;26.20;93.00;;;;;;5106812;28;19912;-46
2021/06/27 02:07:33;;;;;;;;;;;26.20;93.00;;;;;;5105778;28;19943;-48
2021/06/27 02:09:59;;;;;;;;;;;26.20;93.00;;;;;;5107072;28;19915;-50
2021/06/27 02:12:29;;;;;;;;;;;26.20;93.10;;;;;;5106942;28;19915;-44
2021/06/27 02:14:55;;;;;;;;;;;26.20;93.10;;;;;;5106861;28;19909;-47
2021/06/27 02:17:21;;;;;;;;;;;26.20;93.00;;;;;;5105844;28;20211;-45
2021/06/27 02:19:53;;;;;;;;;;;26.20;93.00;;;;;;5105909;28;19908;-45
2021/06/27 02:22:20;;;;;;;;;;;26.20;93.00;;;;;;5106870;28;19908;-48
2021/06/27 02:24:46;;;;;;;;;;;26.20;92.90;;;;;;5106625;28;19919;-46
2021/06/27 02:27:12;;;;;;;;;;;26.10;93.00;;;;;;5106519;28;20181;-45
2021/06/27 02:29:39;;;;;;;;;;;26.10;93.00;;;;;;5106552;28;19932;-44
2021/06/27 02:32:05;;;;;;;;;;;26.10;93.00;;;;;;5106649;28;19944;-46
2021/06/27 02:34:31;;;;;;;;;;;26.10;93.10;;;;;;5106399;28;19915;-46
2021/06/27 02:36:58;;;;;;;;;;;26.10;93.10;;;;;;5105255;28;19930;-47
2021/06/27 02:39:24;;;;;;;;;;;26.10;93.20;;;;;;5106384;28;20112;-44
2021/06/27 02:41:51;;;;;;;;;;;26.00;93.10;;;;;;5106228;28;19918;-53
2021/06/27 02:44:17;;;;;;;;;;;26.10;93.10;;;;;;5106217;28;19975;-46
2021/06/27 02:46:43;;;;;;;;;;;26.10;93.10;;;;;;5106350;28;19945;-52
2021/06/27 02:49:09;;;;;;;;;;;26.10;93.20;;;;;;5106162;28;20192;-46
2021/06/27 02:51:36;;;;;;;;;;;26.00;93.10;;;;;;5106302;28;19912;-45
2021/06/27 02:54:02;;;;;;;;;;;26.00;93.10;;;;;;5106151;28;19904;-47
2021/06/27 02:56:28;;;;;;;;;;;26.00;93.20;;;;;;5106144;28;20040;-52
2021/06/27 02:58:55;;;;;;;;;;;26.00;93.20;;;;;;5104769;28;19904;-46
2021/06/27 03:01:22;;;;;;;;;;;26.00;93.20;;;;;;5105930;28;19904;-48
2021/06/27 03:03:52;;;;;;;;;;;26.00;93.00;;;;;;5106362;28;19916;-48
2021/06/27 03:06:18;;;;;;;;;;;26.00;93.10;;;;;;5105854;28;19911;-51
2021/06/27 03:08:44;;;;;;;;;;;26.00;93.10;;;;;;5104674;28;19916;-44
2021/06/27 03:11:11;;;;;;;;;;;26.00;93.20;;;;;;5105781;28;19911;-50
2021/06/27 03:13:40;;;;;;;;;;;26.00;93.20;;;;;;5106032;28;19919;-44
2021/06/27 03:16:07;;;;;;;;;;;26.00;93.10;;;;;;5105733;28;20004;-49
2021/06/27 03:18:33;;;;;;;;;;;26.00;93.20;;;;;;5104758;28;20122;-48
2021/06/27 03:20:59;;;;;;;;;;;26.00;93.20;;;;;;5105484;28;19904;-45
2021/06/27 03:23:26;;;;;;;;;;;26.00;93.20;;;;;;5105968;28;19916;-45
2021/06/27 03:25:53;;;;;;;;;;;26.00;93.30;;;;;;5105589;28;19905;-48
2021/06/27 03:28:20;;;;;;;;;;;26.00;93.20;;;;;;5104390;28;19919;-47
2021/06/27 03:30:46;;;;;;;;;;;25.90;93.20;;;;;;5103162;28;20146;-49
2021/06/27 03:33:13;;;;;;;;;;;25.90;93.10;;;;;;5104319;28;19912;-48
2021/06/27 03:35:39;;;;;;;;;;;25.90;93.20;;;;;;5105210;28;19945;-50
2021/06/27 03:38:21;;;;;;;;;;;25.90;93.20;;;;;;5103964;28;19920;-53
2021/06/27 03:40:47;;;;;;;;;;;25.90;93.20;;;;;;5105312;28;19908;-48
2021/06/27 03:43:14;;;;;;;;;;;25.90;93.20;;;;;;5105519;28;19912;-52
2021/06/27 03:45:40;;;;;;;;;;;25.90;93.10;;;;;;5105149;28;20105;-55
2021/06/27 03:48:06;;;;;;;;;;;25.90;93.10;;;;;;5105352;28;19969;-51
2021/06/27 03:50:33;;;;;;;;;;;25.90;93.10;;;;;;5105272;28;19944;-45
2021/06/27 03:52:59;;;;;;;;;;;25.90;93.10;;;;;;5104973;28;19949;-53
2021/06/27 03:55:26;;;;;;;;;;;25.90;93.10;;;;;;5104948;28;19942;-46
2021/06/27 03:57:52;;;;;;;;;;;25.90;93.20;;;;;;5105268;28;19912;-51
2021/06/27 04:00:19;;;;;;;;;;;25.90;93.20;;;;;;5105084;28;19908;-46
2021/06/27 04:02:46;;;;;;;;;;;25.80;93.10;;;;;;5103904;28;19923;-53
2021/06/27 04:05:13;;;;;;;;;;;25.80;93.20;;;;;;5104695;28;19915;-45
2021/06/27 04:07:39;;;;;;;;;;;25.80;93.20;;;;;;5105135;28;19919;-50
2021/06/27 04:10:06;;;;;;;;;;;25.80;93.10;;;;;;5104778;28;19932;-45
2021/06/27 04:12:32;;;;;;;;;;;25.80;93.20;;;;;;5104769;28;19912;-51
2021/06/27 04:14:58;;;;;;;;;;;25.80;93.20;;;;;;5103458;28;20029;-48
2021/06/27 04:17:25;;;;;;;;;;;25.80;93.10;;;;;;5104937;28;19913;-54
2021/06/27 04:19:51;;;;;;;;;;;25.80;93.10;;;;;;5104591;28;19904;-46
2021/06/27 04:22:18;;;;;;;;;;;25.70;93.10;;;;;;5104750;28;19917;-53
2021/06/27 04:24:44;;;;;;;;;;;25.80;93.20;;;;;;5104519;28;19908;-50
2021/06/27 04:27:11;;;;;;;;;;;25.70;93.20;;;;;;5104673;28;19912;-44
2021/06/27 04:29:37;;;;;;;;;;;25.70;93.20;;;;;;5104655;28;19911;-48
2021/06/27 04:32:04;;;;;;;;;;;25.70;93.20;;;;;;5104709;28;19912;-48
2021/06/27 04:34:31;;;;;;;;;;;25.70;93.30;;;;;;5104445;28;19932;-56
2021/06/27 04:36:58;;;;;;;;;;;25.70;93.20;;;;;;5102823;28;19947;-46
2021/06/27 04:39:24;;;;;;;;;;;25.70;93.20;;;;;;5104308;28;19939;-44
2021/06/27 04:41:50;;;;;;;;;;;25.70;93.10;;;;;;5105323;28;19912;-49
2021/06/27 04:44:16;;;;;;;;;;;25.70;93.10;;;;;;5108756;28;19908;-46
2021/06/27 04:46:42;;;;;;;;;;;25.70;93.10;;;;;;5108784;28;19949;-45
2021/06/27 04:49:09;;;;;;;;;;;25.70;93.10;;;;;;5108513;28;19904;-49
2021/06/27 04:51:35;;;;;;;;;;;25.70;93.20;;;;;;5108434;28;20125;-49
2021/06/27 04:54:01;;;;;;;;;;;25.70;93.20;;;;;;5108537;28;19905;-45
2021/06/27 04:56:28;;;;;;;;;;;25.60;93.20;;;;;;5108392;28;19975;-46
2021/06/27 04:58:54;;;;;;;;;;;25.60;93.20;;;;;;5108212;28;19905;-44
2021/06/27 05:01:20;;;;;;;;;;;25.60;93.20;;;;;;5108383;28;19980;-49
2021/06/27 05:03:46;;;;;;;;;;;25.60;93.20;;;;;;5108648;28;20184;-47
2021/06/27 05:06:13;;;;;;;;;;;25.60;93.20;;;;;;5108125;28;20211;-53
2021/06/27 05:08:39;;;;;;;;;;;25.60;93.20;;;;;;5108576;28;19916;-56
2021/06/27 05:11:05;;;;;;;;;;;25.60;93.20;;;;;;5108167;28;19904;-59
2021/06/27 05:13:31;;;;;;;;;;;25.60;93.10;;;;;;5108372;28;19935;-51
2021/06/27 05:15:58;;;;;;;;;;;25.60;93.20;;;;;;5108112;28;20099;-54
2021/06/27 05:18:24;;;;;;;;;;;25.50;93.20;;;;;;5108376;28;19919;-47
2021/06/27 05:20:50;;;;;;;;;;;25.60;93.10;;;;;;5107784;28;19908;-46
2021/06/27 05:23:17;;;;;;;;;;;25.50;93.10;;;;;;5107835;28;19977;-46
2021/06/27 05:25:43;;;;;;;;;;;25.50;93.00;;;;;;5107809;28;19904;-44
2021/06/27 05:28:09;;;;;;;;;;;25.50;92.90;;;;;;5108060;28;19943;-50
2021/06/27 05:30:35;;;;;;;;;;;25.50;92.90;;;;;;5107702;28;19904;-46
2021/06/27 05:33:02;;;;;;;;;;;25.50;92.70;;;;;;5108107;28;19912;-45
2021/06/27 05:35:28;;;;;;;;;;;25.50;92.60;;;;;;5107538;28;19908;-46
2021/06/27 05:37:54;;;;;;;;;;;25.50;92.40;;;;;;5107659;28;19981;-51
2021/06/27 05:40:21;;;;;;;;;;;25.50;92.30;;;;;;5107584;28;20035;-45
2021/06/27 05:42:48;;;;;;;;;;;25.40;92.20;;;;;;5107928;28;20196;-45
2021/06/27 05:45:14;;;;;;;;;;;25.40;92.20;;;;;;5107377;28;19908;-44
2021/06/27 05:47:40;;;;;;;;;;;25.40;92.20;;;;;;5107756;28;19984;-50
2021/06/27 05:50:07;;;;;;;;;;;25.40;92.20;;;;;;5107346;28;19911;-49
2021/06/27 05:52:33;;;;;;;;;;;25.30;92.10;;;;;;5107457;28;19950;-47
2021/06/27 05:55:00;;;;;;;;;;;25.30;92.10;;;;;;5106263;28;19946;-51
2021/06/27 05:57:26;;;;;;;;;;;25.30;92.00;;;;;;5107464;28;19921;-45
2021/06/27 05:59:52;;;;;;;;;;;25.30;92.10;;;;;;5107081;28;19950;-46
2021/06/27 06:02:18;;;;;;;;;;;25.30;92.10;;;;;;5107370;28;19983;-50
2021/06/27 06:04:44;;;;;;;;;;;25.30;92.20;;;;;;5107052;28;19908;-51
2021/06/27 06:07:11;;;;;;;;;;;25.30;92.20;;;;;;5107067;28;19912;-44
2021/06/27 06:09:37;;;;;;;;;;;25.30;92.20;;;;;;5107016;28;19908;-50
2021/06/27 06:12:03;;;;;;;;;;;25.30;92.20;;;;;;5107106;28;19912;-49
2021/06/27 06:14:29;;;;;;;;;;;25.30;92.20;;;;;;5106675;28;19911;-45
2021/06/27 06:16:56;;;;;;;;;;;25.30;92.40;;;;;;5106960;28;19912;-44
2021/06/27 06:19:23;;;;;;;;;;;25.30;92.40;;;;;;5106860;28;20184;-44
2021/06/27 06:21:50;;;;;;;;;;;25.20;92.50;;;;;;5106708;28;19935;-44
2021/06/27 06:24:17;;;;;;;;;;;25.20;92.60;;;;;;5106836;28;19915;-44
2021/06/27 06:26:44;;;;;;;;;;;25.20;92.60;;;;;;5106773;28;20134;-45
2021/06/27 06:29:10;;;;;;;;;;;25.20;92.70;;;;;;5106618;28;20096;-49
2021/06/27 06:31:37;;;;;;;;;;;25.20;92.70;;;;;;5106564;28;19911;-46
2021/06/27 06:34:03;;;;;;;;;;;25.20;92.60;;;;;;5106648;28;19912;-44
2021/06/27 06:36:29;;;;;;;;;;;25.20;92.80;;;;;;5106461;28;19904;-47
2021/06/27 06:38:56;;;;;;;;;;;25.20;92.90;;;;;;5106364;28;19968;-48
2021/06/27 06:41:23;;;;;;;;;;;25.20;92.90;;;;;;5106511;28;19912;-45
2021/06/27 06:43:49;;;;;;;;;;;25.20;92.90;;;;;;5106772;28;19916;-44
2021/06/27 06:46:15;;;;;;;;;;;25.20;92.90;;;;;;5106224;28;19971;-49
2021/06/27 06:48:42;;;;;;;;;;;25.20;93.00;;;;;;5106775;28;19912;-45
2021/06/27 06:51:08;;;;;;;;;;;25.20;92.90;;;;;;5106283;28;19945;-47
2021/06/27 06:53:34;;;;;;;;;;;25.20;93.00;;;;;;5106545;28;19912;-50
2021/06/27 06:56:01;;;;;;;;;;;25.20;92.90;;;;;;5106102;28;19904;-44
2021/06/27 06:58:30;;;;;;;;;;;25.20;93.00;;;;;;5106534;28;20074;-44
2021/06/27 07:01:00;;;;;;;;;;;25.10;93.00;;;;;;5105951;28;20231;-47
2021/06/27 07:03:27;;;;;;;;;;;25.10;93.00;;;;;;5106369;28;19916;-45
2021/06/27 07:05:53;;;;;;;;;;;25.20;93.00;;;;;;5105801;28;20136;-48
2021/06/27 07:08:19;;;;;;;;;;;25.10;93.00;;;;;;5105677;28;19912;-48
2021/06/27 07:10:45;;;;;;;;;;;25.10;93.00;;;;;;5105892;28;19904;-53
2021/06/27 07:13:12;;;;;;;;;;;25.10;93.10;;;;;;5106133;28;19942;-45
2021/06/27 07:15:38;;;;;;;;;;;25.10;93.00;;;;;;5104483;28;19911;-44
2021/06/27 07:18:04;;;;;;;;;;;25.10;93.10;;;;;;5106029;28;19954;-45
2021/06/27 07:20:30;;;;;;;;;;;25.10;93.00;;;;;;5105558;28;19904;-44
2021/06/27 07:22:57;;;;;;;;;;;25.10;93.00;;;;;;5105801;28;19912;-48
2021/06/27 07:25:23;;;;;;;;;;;25.10;93.00;;;;;;5105548;28;19908;-45
2021/06/27 07:27:49;;;;;;;;;;;25.10;93.10;;;;;;5105705;28;19920;-49
2021/06/27 07:30:15;;;;;;;;;;;25.10;93.00;;;;;;5105383;28;19904;-45
2021/06/27 07:32:42;;;;;;;;;;;25.10;93.00;;;;;;5105661;28;19919;-45
2021/06/27 07:35:08;;;;;;;;;;;25.10;93.10;;;;;;5105433;28;19904;-44
2021/06/27 07:37:34;;;;;;;;;;;25.10;93.10;;;;;;5105334;28;20100;-46
2021/06/27 07:40:01;;;;;;;;;;;25.10;93.10;;;;;;5105310;28;19958;-45
2021/06/27 07:42:27;;;;;;;;;;;25.10;93.10;;;;;;5105478;28;19912;-45
2021/06/27 07:44:53;;;;;;;;;;;25.10;93.20;;;;;;5105187;28;20114;-52
2021/06/27 07:47:19;;;;;;;;;;;25.10;93.20;;;;;;5105166;28;19912;-49
2021/06/27 07:49:45;;;;;;;;;;;25.10;93.10;;;;;;5105035;28;19904;-50
2021/06/27 07:52:12;;;;;;;;;;;25.10;93.10;;;;;;5104972;28;19957;-44
2021/06/27 07:54:38;;;;;;;;;;;25.00;93.10;;;;;;5104843;28;19986;-49
2021/06/27 07:57:05;;;;;;;;;;;25.10;93.10;;;;;;5105112;28;20070;-52
2021/06/27 07:59:31;;;;;;;;;;;25.00;93.10;;;;;;5105033;28;19944;-47
2021/06/27 08:01:58;;;;;;;;;;;25.10;93.20;;;;;;5104857;28;19912;-50
2021/06/27 08:04:24;;;;;;;;;;;25.00;93.20;;;;;;5104743;28;20192;-48
2021/06/27 08:06:50;;;;;;;;;;;25.10;93.10;;;;;;5104807;28;20177;-45
2021/06/27 08:09:16;;;;;;;;;;;25.10;93.20;;;;;;5104677;28;19979;-44
2021/06/27 08:11:42;;;;;;;;;;;25.00;93.10;;;;;;5104727;28;19911;-45
2021/06/27 08:14:10;;;;;;;;;;;25.00;93.20;;;;;;5104722;28;19904;-50
2021/06/27 08:16:37;;;;;;;;;;;25.10;93.20;;;;;;5103896;28;20105;-54
2021/06/27 08:19:05;;;;;;;;;;;25.10;93.20;;;;;;5104735;28;19927;-46
2021/06/27 08:21:32;;;;;;;;;;;25.00;93.20;;;;;;5104570;28;19911;-47
2021/06/27 08:23:58;;;;;;;;;;;25.10;93.20;;;;;;5104479;28;19945;-43
2021/06/27 08:26:25;;;;;;;;;;;25.00;93.20;;;;;;5104506;28;20192;-55
2021/06/27 08:28:51;;;;;;;;;;;25.00;93.30;;;;;;5104569;28;20138;-45
2021/06/27 08:31:19;;;;;;;;;;;25.00;93.30;;;;;;5104462;28;19904;-46
2021/06/27 08:33:46;;;;;;;;;;;25.00;93.30;;;;;;5105007;28;19912;-45
2021/06/27 08:36:12;;;;;;;;;;;25.00;93.30;;;;;;5104543;28;19911;-50
2021/06/27 08:38:38;;;;;;;;;;;25.00;93.20;;;;;;5104394;28;19927;-49
2021/06/27 08:41:04;;;;;;;;;;;25.00;93.20;;;;;;5104386;28;19905;-52
2021/06/27 08:43:31;;;;;;;;;;;25.00;93.20;;;;;;5104817;28;19923;-47
2021/06/27 08:45:58;;;;;;;;;;;25.00;93.20;;;;;;5104338;28;19954;-45
2021/06/27 08:48:25;;;;;;;;;;;24.90;93.20;;;;;;5104827;28;19983;-48
2021/06/27 08:50:53;;;;;;;;;;;24.90;93.10;;;;;;5104371;28;19935;-45
2021/06/27 08:53:19;;;;;;;;;;;24.90;93.10;;;;;;5104747;28;19912;-45
2021/06/27 08:55:45;;;;;;;;;;;25.00;93.10;;;;;;5104290;28;19912;-43
2021/06/27 08:58:12;;;;;;;;;;;25.00;93.10;;;;;;5104797;28;19912;-44
2021/06/27 09:00:38;;;;;;;;;;;24.90;93.10;;;;;;5104274;28;19904;-46
2021/06/27 09:03:10;;;;;;;;;;;24.90;93.10;;;;;;5104485;28;19916;-45
2021/06/27 09:05:38;;;;;;;;;;;24.90;93.20;;;;;;5104312;28;19918;-47
2021/06/27 09:08:19;;;;;;;;;;;24.80;93.20;;;;;;5104472;28;19935;-50
2021/06/27 09:10:46;;;;;;;;;;;24.80;93.20;;;;;;5104188;28;19904;-44
2021/06/27 09:13:12;;;;;;;;;;;24.80;93.20;;;;;;5104592;28;19916;-45
2021/06/27 09:15:40;;;;;;;;;;;24.80;93.20;;;;;;5103957;28;19904;-49
2021/06/27 09:18:09;;;;;;;;;;;24.90;93.10;;;;;;5104589;28;19948;-58
2021/06/27 09:20:35;;;;;;;;;;;24.80;93.10;;;;;;5104188;28;20092;-49
2021/06/27 09:23:02;;;;;;;;;;;24.80;93.10;;;;;;5104287;28;19919;-44
2021/06/27 09:25:30;;;;;;;;;;;24.80;93.20;;;;;;5104075;28;20227;-49
2021/06/27 09:27:58;;;;;;;;;;;24.80;93.20;;;;;;5105311;28;20105;-43
2021/06/27 09:30:25;;;;;;;;;;;24.80;93.10;;;;;;5107700;28;19904;-44
2021/06/27 09:32:51;;;;;;;;;;;24.80;93.20;;;;;;5108050;28;19912;-49
2021/06/27 09:35:37;;;;;;;;;;;24.80;93.20;;;;;;5107790;28;19911;-46
2021/06/27 09:38:22;;;;;;;;;;;24.80;93.20;;;;;;5107774;28;19916;-45
2021/06/27 09:40:50;;;;;;;;;;;24.80;93.20;;;;;;5107389;28;20215;-44
2021/06/27 09:43:17;;;;;;;;;;;24.70;93.10;;;;;;5107871;28;19912;-44
2021/06/27 09:45:48;;;;;;;;;;;24.70;93.10;;;;;;5107516;28;19904;-45
2021/06/27 09:48:14;;;;;;;;;;;24.70;93.10;;;;;;5107772;28;20030;-48
2021/06/27 09:50:41;;;;;;;;;;;24.70;93.10;;;;;;5107386;28;19904;-44
2021/06/27 09:53:27;;;;;;;;;;;24.70;93.10;;;;;;5107851;28;19995;-48
2021/06/27 09:56:00;;;;;;;;;;;24.70;93.10;;;;;;5107308;28;19905;-47
2021/06/27 09:58:26;;;;;;;;;;;24.70;93.20;;;;;;5107778;28;20138;-48
2021/06/27 10:00:52;;;;;;;;;;;24.70;93.10;;;;;;5107114;28;19904;-49
2021/06/27 10:03:18;;;;;;;;;;;24.70;93.20;;;;;;5107629;28;19919;-50
2021/06/27 10:05:45;;;;;;;;;;;24.70;93.20;;;;;;5107057;28;19904;-45
2021/06/27 10:08:27;;;;;;;;;;;24.70;93.20;;;;;;5107391;28;20118;-48
2021/06/27 10:11:12;;;;;;;;;;;24.70;93.30;;;;;;5107150;28;20211;-44
2021/06/27 10:13:39;;;;;;;;;;;24.60;93.20;;;;;;5107339;28;19919;-50
2021/06/27 10:16:05;;;;;;;;;;;24.60;93.20;;;;;;5106944;28;19904;-46
2021/06/27 10:18:32;;;;;;;;;;;24.60;93.20;;;;;;5107326;28;19919;-47
2021/06/27 10:20:59;;;;;;;;;;;24.60;93.20;;;;;;5106745;28;19911;-56
2021/06/27 10:23:25;;;;;;;;;;;24.60;93.30;;;;;;5106760;28;19912;-46
2021/06/27 10:25:53;;;;;;;;;;;24.60;93.20;;;;;;5106770;28;19904;-45
2021/06/27 10:28:19;;;;;;;;;;;24.60;93.30;;;;;;5106988;28;19987;-47
2021/06/27 10:30:46;;;;;;;;;;;24.60;93.20;;;;;;5106686;28;19947;-50
2021/06/27 10:33:12;;;;;;;;;;;24.60;93.20;;;;;;5106993;28;19912;-44
2021/06/27 10:35:39;;;;;;;;;;;24.60;93.20;;;;;;5106422;28;19967;-47
2021/06/27 10:38:06;;;;;;;;;;;24.60;93.20;;;;;;5106625;28;19927;-48
2021/06/27 10:41:11;;;;;;;;;;;24.60;93.20;;;;;;5105934;28;19905;-45
2021/06/27 10:43:55;;;;;;;;;;;24.50;93.20;;;;;;5044242;28;20004;-44
2021/06/27 10:46:38;;;;;;;;;;;24.60;93.20;;;;;;5044616;28;19979;-44
2021/06/27 10:49:05;;;;;;;;;;;24.50;93.30;;;;;;5044282;28;19920;-44
2021/06/27 10:51:54;;;;;;;;;;;24.50;93.40;;;;;;5069482;28;19947;-45
2021/06/27 10:54:20;;;;;;;;;;;24.50;93.30;;;;;;5098162;28;20152;-44
2021/06/27 10:56:59;;;;;;;;;;;24.50;93.30;;;;;;5105975;28;19920;-45
2021/06/27 10:59:49;;;;;;;;;;;24.60;93.20;;;;;;5106235;28;20255;-46
2021/06/27 11:02:22;;;;;;;;;;;24.60;93.30;;;;;;5098564;28;20096;-44
2021/06/27 11:04:52;;;;;;;;;;;24.50;93.20;;;;;;5105932;28;19915;-50
2021/06/27 11:07:37;;;;;;;;;;;24.50;93.30;;;;;;5105826;28;19912;-43
2021/06/27 11:10:19;;;;;;;;;;;24.60;93.40;;;;;;5105942;28;19927;-49
2021/06/27 11:13:00;;;;;;;;;;;24.60;93.30;;;;;;5106035;28;19957;-48
2021/06/27 11:15:33;;;;;;;;;;;24.60;93.60;;;;;;5104408;28;19904;-46
2021/06/27 11:18:01;;;;;;;;;;;24.60;93.30;;;;;;5106052;28;19953;-46
2021/06/27 11:20:29;;;;;;;;;;;24.70;93.40;;;;;;5105726;28;19911;-46
2021/06/27 11:22:56;;;;;;;;;;;24.70;93.50;;;;;;5105901;28;20096;-52
2021/06/27 11:25:36;;;;;;;;;;;24.70;93.50;;;;;;5105551;28;19931;-52
2021/06/27 11:28:22;;;;;;;;;;;24.70;93.50;;;;;;5105838;28;19939;-45
2021/06/27 11:30:51;;;;;;;;;;;24.70;93.50;;;;;;5094937;28;19908;-51
2021/06/27 11:33:22;;;;;;;;;;;24.80;93.50;;;;;;5105826;28;19919;-47
2021/06/27 11:35:55;;;;;;;;;;;24.80;93.50;;;;;;5105376;28;19904;-45
2021/06/27 11:38:41;;;;;;;;;;;24.80;93.50;;;;;;5105457;28;19920;-48
2021/06/27 11:41:20;;;;;;;;;;;24.90;93.30;;;;;;5105179;28;20159;-47
2021/06/27 11:43:52;;;;;;;;;;;25.10;93.20;;;;;;5105662;28;20108;-50
2021/06/27 11:46:25;;;;;;;;;;;25.30;92.90;;;;;;5105304;28;19912;-47
2021/06/27 11:48:52;;;;;;;;;;;25.60;92.50;;;;;;5105193;28;19912;-47
2021/06/27 11:51:18;;;;;;;;;;;25.90;92.10;;;;;;5104300;28;20100;-46
2021/06/27 11:53:44;;;;;;;;;;;26.20;91.70;;;;;;5105504;28;19912;-45
2021/06/27 11:56:15;;;;;;;;;;;26.40;91.10;;;;;;5105144;28;19904;-50
2021/06/27 11:58:41;;;;;;;;;;;26.60;90.70;;;;;;5105338;28;19940;-45
2021/06/27 12:01:08;;;;;;;;;;;26.60;90.60;;;;;;5104307;28;20105;-45
2021/06/27 12:03:43;;;;;;;;;;;26.50;90.80;;;;;;5105712;28;19998;-52
2021/06/27 12:06:11;;;;;;;;;;;26.40;90.90;;;;;;5105414;28;19904;-51
2021/06/27 12:08:42;;;;;;;;;;;26.40;91.10;;;;;;5105378;28;19919;-51
2021/06/27 12:11:08;;;;;;;;;;;26.30;91.30;;;;;;5105281;28;20185;-52
2021/06/27 12:13:35;;;;;;;;;;;26.30;91.30;;;;;;5105348;28;19912;-47
2021/06/27 12:16:01;;;;;;;;;;;26.40;91.30;;;;;;5103549;28;19942;-43
2021/06/27 12:18:29;;;;;;;;;;;26.40;91.40;;;;;;5105441;28;19953;-48
2021/06/27 12:20:59;;;;;;;;;;;26.40;91.40;;;;;;5104181;28;19945;-49
2021/06/27 12:23:32;;;;;;;;;;;26.50;91.40;;;;;;5105455;28;19908;-45
2021/06/27 12:26:00;;;;;;;;;;;26.60;90.90;;;;;;5104467;28;19908;-45
2021/06/27 12:28:32;;;;;;;;;;;26.60;90.80;;;;;;5105113;28;19915;-46
2021/06/27 12:31:18;;;;;;;;;;;26.70;90.80;;;;;;5103335;28;19939;-45
2021/06/27 12:33:46;;;;;;;;;;;26.70;90.60;;;;;;5105024;28;19975;-44
2021/06/27 12:36:14;;;;;;;;;;;26.80;90.90;;;;;;5104568;28;19908;-43
2021/06/27 12:38:41;;;;;;;;;;;26.80;90.70;;;;;;5104454;28;19959;-47
2021/06/27 12:41:09;;;;;;;;;;;26.80;90.80;;;;;;5104492;28;19908;-48
2021/06/27 12:43:36;;;;;;;;;;;26.90;90.30;;;;;;5104868;28;20181;-45
2021/06/27 12:46:17;;;;;;;;;;;26.90;90.60;;;;;;5104266;28;19946;-44
2021/06/27 12:48:44;;;;;;;;;;;26.90;90.50;;;;;;5104913;28;19981;-47
2021/06/27 12:51:20;;;;;;;;;;;26.90;90.60;;;;;;5104387;28;20138;-45
2021/06/27 12:53:56;;;;;;;;;;;27.00;90.60;;;;;;5104161;28;20034;-44
2021/06/27 12:56:22;;;;;;;;;;;27.00;90.40;;;;;;5104621;28;20086;-49
2021/06/27 12:58:55;;;;;;;;;;;27.10;90.40;;;;;;5103253;28;19975;-44
2021/06/27 13:01:22;;;;;;;;;;;27.10;90.30;;;;;;5104623;28;19908;-44
2021/06/27 13:03:58;;;;;;;;;;;27.10;90.40;;;;;;5107046;28;19912;-51
2021/06/27 13:06:25;;;;;;;;;;;27.20;90.30;;;;;;5108225;28;19908;-45
2021/06/27 13:09:11;;;;;;;;;;;27.10;90.20;;;;;;5108225;28;20252;-42
2021/06/27 13:11:57;;;;;;;;;;;27.10;90.20;;;;;;5108235;28;19935;-43
2021/06/27 13:14:26;;;;;;;;;;;27.10;90.50;;;;;;5107937;28;19916;-49
2021/06/27 13:17:02;;;;;;;;;;;27.10;90.50;;;;;;5108411;28;19912;-45
2021/06/27 13:19:29;;;;;;;;;;;27.10;90.60;;;;;;5108315;28;19908;-49
2021/06/27 13:22:11;;;;;;;;;;;27.20;90.60;;;;;;5108290;28;19914;-49
2021/06/27 13:25:09;;;;;;;;;;;27.20;90.50;;;;;;5106749;28;19912;-46
2021/06/27 13:27:35;;;;;;;;;;;27.10;90.50;;;;;;5073927;28;20231;-46
2021/06/27 13:30:06;;;;;;;;;;;27.20;90.50;;;;;;5107689;28;19908;-43
2021/06/27 13:32:32;;;;;;;;;;;27.20;90.50;;;;;;5107902;28;19939;-43
2021/06/27 13:34:59;;;;;;;;;;;27.20;90.40;;;;;;5107739;28;19953;-44
2021/06/27 13:37:25;;;;;;;;;;;27.20;90.50;;;;;;5107922;28;20177;-47
2021/06/27 13:39:51;;;;;;;;;;;27.20;90.50;;;;;;5107430;28;19922;-43
2021/06/27 13:42:18;;;;;;;;;;;27.20;90.60;;;;;;5107713;28;19919;-44
2021/06/27 13:44:58;;;;;;;;;;;27.20;90.50;;;;;;5107518;28;19908;-45
2021/06/27 13:47:24;;;;;;;;;;;27.20;90.60;;;;;;5107935;28;20185;-43
2021/06/27 13:49:51;;;;;;;;;;;27.20;90.60;;;;;;5107457;28;19949;-45
2021/06/27 13:52:17;;;;;;;;;;;27.10;90.70;;;;;;5107526;28;19964;-49
2021/06/27 13:54:43;;;;;;;;;;;27.10;90.70;;;;;;5107455;28;19911;-41
2021/06/27 13:57:09;;;;;;;;;;;27.10;90.80;;;;;;5107451;28;19974;-44
2021/06/27 13:59:36;;;;;;;;;;;27.10;90.90;;;;;;5107276;28;19926;-50
2021/06/27 14:02:02;;;;;;;;;;;27.10;90.90;;;;;;5107107;28;20025;-48
2021/06/27 14:04:28;;;;;;;;;;;27.10;90.90;;;;;;5107112;28;19914;-47
2021/06/27 14:06:54;;;;;;;;;;;27.10;91.00;;;;;;5107218;28;19975;-47
2021/06/27 14:09:24;;;;;;;;;;;27.10;91.00;;;;;;5106977;28;20014;-42
2021/06/27 14:11:50;;;;;;;;;;;27.10;91.00;;;;;;5107058;28;19920;-46
2021/06/27 14:14:17;;;;;;;;;;;27.10;90.90;;;;;;5106149;28;19904;-46
2021/06/27 14:16:47;;;;;;;;;;;27.10;90.90;;;;;;5106586;28;19904;-48
2021/06/27 14:19:14;;;;;;;;;;;27.10;90.90;;;;;;5106934;28;19911;-49
2021/06/27 14:21:40;;;;;;;;;;;27.10;90.90;;;;;;5106918;28;19911;-46